sensor_id;sensor_type;location;lat;lon;timestamp;temperature;humidity
17170;DHT22;8700;48.222;16.342;2023-06-22T00:00:10;23.10;99.90
17170;DHT22;8700;48.222;16.342;2023-06-22T00:03:34;23.10;99.90
17170;DHT22;8700;48.222;16.342;2023-06-22T00:06:55;23.20;99.90
17170;DHT22;8700;48.222;16.342;2023-06-22T00:10:17;23.20;99.90
17170;DHT22;8700;48.222;16.342;2023-06-22T00:13:38;23.10;99.90
17170;DHT22;8700;48.222;16.342;2023-06-22T00:17:00;23.20;99.90
17170;DHT22;8700;48.222;16.342;2023-06-22T00:20:22;23.30;99.90
17170;DHT22;8700;48.222;16.342;2023-06-22T00:23:47;23.30;99.90
17170;DHT22;8700;48.222;16.342;2023-06-22T00:27:09;23.20;99.90
17170;DHT22;8700;48.222;16.342;2023-06-22T00:30:30;23.10;99.90
17170;DHT22;8700;48.222;16.342;2023-06-22T00:33:52;23.10;99.90
17170;DHT22;8700;48.222;16.342;2023-06-22T00:37:15;23.00;99.90
17170;DHT22;8700;48.222;16.342;2023-06-22T00:40:36;22.90;99.90
17170;DHT22;8700;48.222;16.342;2023-06-22T00:44:00;22.80;99.90
17170;DHT22;8700;48.222;16.342;2023-06-22T00:47:21;22.60;99.90
17170;DHT22;8700;48.222;16.342;2023-06-22T00:50:42;22.70;99.90
17170;DHT22;8700;48.222;16.342;2023-06-22T00:54:07;22.80;99.90
17170;DHT22;8700;48.222;16.342;2023-06-22T00:57:28;22.90;99.90
17170;DHT22;8700;48.222;16.342;2023-06-22T01:00:51;22.80;99.90
17170;DHT22;8700;48.222;16.342;2023-06-22T01:04:12;22.70;99.90
17170;DHT22;8700;48.222;16.342;2023-06-22T01:07:37;22.50;99.90
17170;DHT22;8700;48.222;16.342;2023-06-22T01:11:08;22.50;99.90
17170;DHT22;8700;48.222;16.342;2023-06-22T01:14:37;22.60;99.90
17170;DHT22;8700;48.222;16.342;2023-06-22T01:18:03;22.70;99.90
17170;DHT22;8700;48.222;16.342;2023-06-22T01:21:27;22.80;99.90
17170;DHT22;8700;48.222;16.342;2023-06-22T01:24:55;22.80;99.90
17170;DHT22;8700;48.222;16.342;2023-06-22T01:28:33;22.90;99.90
17170;DHT22;8700;48.222;16.342;2023-06-22T01:31:57;22.90;99.90
17170;DHT22;8700;48.222;16.342;2023-06-22T01:35:20;22.70;99.90
17170;DHT22;8700;48.222;16.342;2023-06-22T01:38:42;22.90;99.90
17170;DHT22;8700;48.222;16.342;2023-06-22T01:42:05;22.90;99.90
17170;DHT22;8700;48.222;16.342;2023-06-22T01:45:28;22.70;99.90
17170;DHT22;8700;48.222;16.342;2023-06-22T01:48:50;22.70;99.90
17170;DHT22;8700;48.222;16.342;2023-06-22T01:52:13;22.80;99.90
17170;DHT22;8700;48.222;16.342;2023-06-22T01:55:34;22.90;99.90
17170;DHT22;8700;48.222;16.342;2023-06-22T01:59:00;23.00;99.90
17170;DHT22;8700;48.222;16.342;2023-06-22T02:02:25;22.90;99.90
17170;DHT22;8700;48.222;16.342;2023-06-22T02:05:54;22.60;99.90
17170;DHT22;8700;48.222;16.342;2023-06-22T02:09:17;22.50;99.90
17170;DHT22;8700;48.222;16.342;2023-06-22T02:12:40;22.50;99.90
17170;DHT22;8700;48.222;16.342;2023-06-22T02:16:06;22.40;99.90
17170;DHT22;8700;48.222;16.342;2023-06-22T02:19:30;22.30;99.90
17170;DHT22;8700;48.222;16.342;2023-06-22T02:22:52;22.30;99.90
17170;DHT22;8700;48.222;16.342;2023-06-22T02:26:16;22.40;99.90
17170;DHT22;8700;48.222;16.342;2023-06-22T02:29:38;22.30;99.90
17170;DHT22;8700;48.222;16.342;2023-06-22T02:32:59;22.40;99.90
17170;DHT22;8700;48.222;16.342;2023-06-22T02:36:21;22.40;99.90
17170;DHT22;8700;48.222;16.342;2023-06-22T02:39:44;22.40;99.90
17170;DHT22;8700;48.222;16.342;2023-06-22T02:43:05;22.50;99.90
17170;DHT22;8700;48.222;16.342;2023-06-22T02:46:27;22.60;99.90
17170;DHT22;8700;48.222;16.342;2023-06-22T02:49:50;22.70;99.90
17170;DHT22;8700;48.222;16.342;2023-06-22T02:53:13;22.60;99.90
17170;DHT22;8700;48.222;16.342;2023-06-22T02:56:34;22.60;99.90
17170;DHT22;8700;48.222;16.342;2023-06-22T02:59:56;22.70;99.90
17170;DHT22;8700;48.222;16.342;2023-06-22T03:03:17;22.80;99.90
17170;DHT22;8700;48.222;16.342;2023-06-22T03:06:41;22.60;99.90
17170;DHT22;8700;48.222;16.342;2023-06-22T03:10:04;22.40;99.90
17170;DHT22;8700;48.222;16.342;2023-06-22T03:13:27;22.40;99.90
17170;DHT22;8700;48.222;16.342;2023-06-22T03:16:48;22.50;99.90
17170;DHT22;8700;48.222;16.342;2023-06-22T03:20:10;22.60;99.90
17170;DHT22;8700;48.222;16.342;2023-06-22T03:23:32;22.70;99.90
17170;DHT22;8700;48.222;16.342;2023-06-22T03:26:55;22.70;99.90
17170;DHT22;8700;48.222;16.342;2023-06-22T03:30:16;22.80;99.90
17170;DHT22;8700;48.222;16.342;2023-06-22T03:33:41;22.90;99.90
17170;DHT22;8700;48.222;16.342;2023-06-22T03:37:02;22.90;99.90
17170;DHT22;8700;48.222;16.342;2023-06-22T03:40:24;23.00;99.90
17170;DHT22;8700;48.222;16.342;2023-06-22T03:43:46;23.10;99.90
17170;DHT22;8700;48.222;16.342;2023-06-22T03:47:08;23.10;99.90
17170;DHT22;8700;48.222;16.342;2023-06-22T03:50:29;23.00;99.90
17170;DHT22;8700;48.222;16.342;2023-06-22T03:53:51;23.00;99.90
17170;DHT22;8700;48.222;16.342;2023-06-22T03:57:12;22.90;99.90
17170;DHT22;8700;48.222;16.342;2023-06-22T04:00:34;23.00;99.90
17170;DHT22;8700;48.222;16.342;2023-06-22T04:03:56;23.00;99.90
17170;DHT22;8700;48.222;16.342;2023-06-22T04:07:20;22.90;99.90
17170;DHT22;8700;48.222;16.342;2023-06-22T04:10:42;22.90;99.90
17170;DHT22;8700;48.222;16.342;2023-06-22T04:14:05;23.00;99.90
17170;DHT22;8700;48.222;16.342;2023-06-22T04:17:28;23.10;99.90
17170;DHT22;8700;48.222;16.342;2023-06-22T04:20:49;23.30;99.90
17170;DHT22;8700;48.222;16.342;2023-06-22T04:24:10;23.40;99.90
17170;DHT22;8700;48.222;16.342;2023-06-22T04:27:32;23.60;99.90
17170;DHT22;8700;48.222;16.342;2023-06-22T04:30:56;23.70;99.90
17170;DHT22;8700;48.222;16.342;2023-06-22T04:34:23;23.70;99.90
17170;DHT22;8700;48.222;16.342;2023-06-22T04:37:46;23.70;99.90
17170;DHT22;8700;48.222;16.342;2023-06-22T04:41:08;23.70;99.90
17170;DHT22;8700;48.222;16.342;2023-06-22T04:44:34;23.70;99.90
17170;DHT22;8700;48.222;16.342;2023-06-22T04:47:55;23.70;99.90
17170;DHT22;8700;48.222;16.342;2023-06-22T04:51:18;23.80;99.90
17170;DHT22;8700;48.222;16.342;2023-06-22T04:54:41;23.90;99.90
17170;DHT22;8700;48.222;16.342;2023-06-22T04:58:07;23.80;99.90
17170;DHT22;8700;48.222;16.342;2023-06-22T05:01:29;23.80;99.90
17170;DHT22;8700;48.222;16.342;2023-06-22T05:04:51;24.00;99.90
17170;DHT22;8700;48.222;16.342;2023-06-22T05:08:18;24.10;99.90
17170;DHT22;8700;48.222;16.342;2023-06-22T05:11:39;24.30;99.90
17170;DHT22;8700;48.222;16.342;2023-06-22T05:15:01;24.40;99.90
17170;DHT22;8700;48.222;16.342;2023-06-22T05:18:22;24.40;99.90
17170;DHT22;8700;48.222;16.342;2023-06-22T05:21:44;24.40;99.90
17170;DHT22;8700;48.222;16.342;2023-06-22T05:25:09;24.40;99.90
17170;DHT22;8700;48.222;16.342;2023-06-22T05:28:33;24.40;99.90
17170;DHT22;8700;48.222;16.342;2023-06-22T05:31:54;24.40;99.90
17170;DHT22;8700;48.222;16.342;2023-06-22T05:35:15;24.50;99.90
17170;DHT22;8700;48.222;16.342;2023-06-22T05:38:37;24.60;99.90
17170;DHT22;8700;48.222;16.342;2023-06-22T05:42:00;24.80;99.90
17170;DHT22;8700;48.222;16.342;2023-06-22T05:45:21;25.00;99.90
17170;DHT22;8700;48.222;16.342;2023-06-22T05:48:42;25.10;99.90
17170;DHT22;8700;48.222;16.342;2023-06-22T05:52:04;25.20;99.90
17170;DHT22;8700;48.222;16.342;2023-06-22T05:55:26;25.30;99.90
17170;DHT22;8700;48.222;16.342;2023-06-22T05:58:48;25.30;99.90
17170;DHT22;8700;48.222;16.342;2023-06-22T06:02:10;25.40;99.90
17170;DHT22;8700;48.222;16.342;2023-06-22T06:05:32;25.40;99.90
17170;DHT22;8700;48.222;16.342;2023-06-22T06:08:53;25.40;99.90
17170;DHT22;8700;48.222;16.342;2023-06-22T06:12:14;25.70;99.90
17170;DHT22;8700;48.222;16.342;2023-06-22T06:15:37;25.70;99.90
17170;DHT22;8700;48.222;16.342;2023-06-22T06:18:59;25.80;99.90
17170;DHT22;8700;48.222;16.342;2023-06-22T06:22:21;25.90;99.90
17170;DHT22;8700;48.222;16.342;2023-06-22T06:25:43;26.00;99.90
17170;DHT22;8700;48.222;16.342;2023-06-22T06:29:04;26.20;99.90
17170;DHT22;8700;48.222;16.342;2023-06-22T06:32:27;26.10;99.90
17170;DHT22;8700;48.222;16.342;2023-06-22T06:35:48;26.30;99.90
17170;DHT22;8700;48.222;16.342;2023-06-22T06:39:09;26.50;99.90
17170;DHT22;8700;48.222;16.342;2023-06-22T06:42:31;26.20;99.90
17170;DHT22;8700;48.222;16.342;2023-06-22T06:45:52;26.60;99.90
17170;DHT22;8700;48.222;16.342;2023-06-22T06:49:15;26.70;99.90
17170;DHT22;8700;48.222;16.342;2023-06-22T06:52:36;26.80;99.90
17170;DHT22;8700;48.222;16.342;2023-06-22T06:55:58;27.10;99.90
17170;DHT22;8700;48.222;16.342;2023-06-22T06:59:19;26.90;99.90
17170;DHT22;8700;48.222;16.342;2023-06-22T07:02:42;27.20;99.90
17170;DHT22;8700;48.222;16.342;2023-06-22T07:06:05;27.40;99.90
17170;DHT22;8700;48.222;16.342;2023-06-22T07:09:27;27.60;99.90
17170;DHT22;8700;48.222;16.342;2023-06-22T07:12:48;27.60;99.90
17170;DHT22;8700;48.222;16.342;2023-06-22T07:16:09;27.60;99.90
17170;DHT22;8700;48.222;16.342;2023-06-22T07:19:32;27.70;99.90
17170;DHT22;8700;48.222;16.342;2023-06-22T07:22:55;27.90;99.90
17170;DHT22;8700;48.222;16.342;2023-06-22T07:26:18;28.20;99.90
17170;DHT22;8700;48.222;16.342;2023-06-22T07:29:40;28.80;99.90
17170;DHT22;8700;48.222;16.342;2023-06-22T07:33:03;29.80;99.90
17170;DHT22;8700;48.222;16.342;2023-06-22T07:36:28;30.90;99.90
17170;DHT22;8700;48.222;16.342;2023-06-22T07:39:52;31.70;99.90
17170;DHT22;8700;48.222;16.342;2023-06-22T07:43:18;32.10;99.90
17170;DHT22;8700;48.222;16.342;2023-06-22T07:46:39;32.60;99.90
17170;DHT22;8700;48.222;16.342;2023-06-22T07:50:01;33.20;99.90
17170;DHT22;8700;48.222;16.342;2023-06-22T07:53:22;33.60;99.90
17170;DHT22;8700;48.222;16.342;2023-06-22T07:56:46;34.30;99.90
17170;DHT22;8700;48.222;16.342;2023-06-22T08:00:08;34.70;99.90
17170;DHT22;8700;48.222;16.342;2023-06-22T08:03:33;34.60;99.90
17170;DHT22;8700;48.222;16.342;2023-06-22T08:06:55;34.60;99.80
17170;DHT22;8700;48.222;16.342;2023-06-22T08:10:17;34.80;99.70
17170;DHT22;8700;48.222;16.342;2023-06-22T08:13:39;34.60;98.90
17170;DHT22;8700;48.222;16.342;2023-06-22T08:17:01;34.00;99.20
17170;DHT22;8700;48.222;16.342;2023-06-22T08:20:22;34.20;99.50
17170;DHT22;8700;48.222;16.342;2023-06-22T08:23:44;34.30;99.30
17170;DHT22;8700;48.222;16.342;2023-06-22T08:27:07;34.70;99.10
17170;DHT22;8700;48.222;16.342;2023-06-22T08:30:31;34.80;98.80
17170;DHT22;8700;48.222;16.342;2023-06-22T08:33:52;35.30;97.40
17170;DHT22;8700;48.222;16.342;2023-06-22T08:37:14;35.40;97.30
17170;DHT22;8700;48.222;16.342;2023-06-22T08:40:35;35.70;97.00
17170;DHT22;8700;48.222;16.342;2023-06-22T08:43:56;36.00;96.10
17170;DHT22;8700;48.222;16.342;2023-06-22T08:47:20;35.70;96.50
17170;DHT22;8700;48.222;16.342;2023-06-22T08:50:41;35.80;95.70
17170;DHT22;8700;48.222;16.342;2023-06-22T08:54:02;35.70;94.10
17170;DHT22;8700;48.222;16.342;2023-06-22T08:57:25;35.40;92.90
17170;DHT22;8700;48.222;16.342;2023-06-22T09:00:46;35.80;93.30
17170;DHT22;8700;48.222;16.342;2023-06-22T09:04:09;36.60;92.60
17170;DHT22;8700;48.222;16.342;2023-06-22T09:07:31;36.60;91.50
17170;DHT22;8700;48.222;16.342;2023-06-22T09:10:54;36.40;91.70
17170;DHT22;8700;48.222;16.342;2023-06-22T09:14:16;36.30;91.00
17170;DHT22;8700;48.222;16.342;2023-06-22T09:17:38;36.50;90.90
17170;DHT22;8700;48.222;16.342;2023-06-22T09:21:01;36.40;91.00
17170;DHT22;8700;48.222;16.342;2023-06-22T09:24:23;36.30;89.70
17170;DHT22;8700;48.222;16.342;2023-06-22T09:27:44;36.10;89.40
17170;DHT22;8700;48.222;16.342;2023-06-22T09:31:05;36.20;89.50
17170;DHT22;8700;48.222;16.342;2023-06-22T09:34:27;37.50;86.90
17170;DHT22;8700;48.222;16.342;2023-06-22T09:37:49;37.40;86.30
17170;DHT22;8700;48.222;16.342;2023-06-22T09:41:11;37.80;85.30
17170;DHT22;8700;48.222;16.342;2023-06-22T09:44:32;37.60;84.10
17170;DHT22;8700;48.222;16.342;2023-06-22T09:47:54;37.20;84.20
17170;DHT22;8700;48.222;16.342;2023-06-22T09:51:15;37.00;84.50
17170;DHT22;8700;48.222;16.342;2023-06-22T09:54:38;37.00;85.30
17170;DHT22;8700;48.222;16.342;2023-06-22T09:57:59;37.50;84.80
17170;DHT22;8700;48.222;16.342;2023-06-22T10:01:20;38.30;82.70
17170;DHT22;8700;48.222;16.342;2023-06-22T10:04:42;38.70;80.40
17170;DHT22;8700;48.222;16.342;2023-06-22T10:08:04;38.20;81.30
17170;DHT22;8700;48.222;16.342;2023-06-22T10:11:28;38.10;79.90
17170;DHT22;8700;48.222;16.342;2023-06-22T10:14:50;37.80;81.40
17170;DHT22;8700;48.222;16.342;2023-06-22T10:18:12;38.00;81.60
17170;DHT22;8700;48.222;16.342;2023-06-22T10:21:33;37.80;80.50
17170;DHT22;8700;48.222;16.342;2023-06-22T10:24:54;37.20;81.10
17170;DHT22;8700;48.222;16.342;2023-06-22T10:28:17;37.20;82.00
17170;DHT22;8700;48.222;16.342;2023-06-22T10:31:39;37.10;81.80
17170;DHT22;8700;48.222;16.342;2023-06-22T10:35:01;37.00;82.00
17170;DHT22;8700;48.222;16.342;2023-06-22T10:38:22;36.90;82.10
17170;DHT22;8700;48.222;16.342;2023-06-22T10:41:43;36.80;82.40
17170;DHT22;8700;48.222;16.342;2023-06-22T10:45:07;37.50;79.40
17170;DHT22;8700;48.222;16.342;2023-06-22T10:48:29;37.80;77.70
17170;DHT22;8700;48.222;16.342;2023-06-22T10:51:50;37.10;79.00
17170;DHT22;8700;48.222;16.342;2023-06-22T10:55:12;37.60;77.60
17170;DHT22;8700;48.222;16.342;2023-06-22T10:58:33;37.50;76.70
17170;DHT22;8700;48.222;16.342;2023-06-22T11:01:55;37.50;75.90
17170;DHT22;8700;48.222;16.342;2023-06-22T11:05:17;37.10;76.00
17170;DHT22;8700;48.222;16.342;2023-06-22T11:08:39;36.90;77.00
17170;DHT22;8700;48.222;16.342;2023-06-22T11:12:00;37.30;76.50
17170;DHT22;8700;48.222;16.342;2023-06-22T11:15:21;37.60;75.60
17170;DHT22;8700;48.222;16.342;2023-06-22T11:18:44;37.60;75.20
17170;DHT22;8700;48.222;16.342;2023-06-22T11:22:06;37.80;75.70
17170;DHT22;8700;48.222;16.342;2023-06-22T11:25:27;37.90;74.50
17170;DHT22;8700;48.222;16.342;2023-06-22T11:28:49;37.40;74.80
17170;DHT22;8700;48.222;16.342;2023-06-22T11:32:10;36.60;76.10
17170;DHT22;8700;48.222;16.342;2023-06-22T11:35:33;36.30;77.00
17170;DHT22;8700;48.222;16.342;2023-06-22T11:38:54;36.10;77.50
17170;DHT22;8700;48.222;16.342;2023-06-22T11:42:16;35.60;78.20
17170;DHT22;8700;48.222;16.342;2023-06-22T11:45:37;35.30;79.20
17170;DHT22;8700;48.222;16.342;2023-06-22T11:48:58;35.00;79.20
17170;DHT22;8700;48.222;16.342;2023-06-22T11:52:21;34.90;79.10
17170;DHT22;8700;48.222;16.342;2023-06-22T11:55:43;34.90;79.30
17170;DHT22;8700;48.222;16.342;2023-06-22T11:59:04;35.10;79.50
17170;DHT22;8700;48.222;16.342;2023-06-22T12:02:26;35.00;79.60
17170;DHT22;8700;48.222;16.342;2023-06-22T12:05:47;34.90;79.60
17170;DHT22;8700;48.222;16.342;2023-06-22T12:09:10;34.80;80.50
17170;DHT22;8700;48.222;16.342;2023-06-22T12:12:33;35.20;80.30
17170;DHT22;8700;48.222;16.342;2023-06-22T12:15:54;35.20;80.40
17170;DHT22;8700;48.222;16.342;2023-06-22T12:19:15;35.20;80.20
17170;DHT22;8700;48.222;16.342;2023-06-22T12:22:37;35.20;80.20
17170;DHT22;8700;48.222;16.342;2023-06-22T12:26:00;35.30;80.40
17170;DHT22;8700;48.222;16.342;2023-06-22T12:29:21;35.00;81.30
17170;DHT22;8700;48.222;16.342;2023-06-22T12:32:43;34.10;81.90
17170;DHT22;8700;48.222;16.342;2023-06-22T12:36:04;34.40;82.70
17170;DHT22;8700;48.222;16.342;2023-06-22T12:39:25;35.10;81.20
17170;DHT22;8700;48.222;16.342;2023-06-22T12:42:48;35.00;81.40
17170;DHT22;8700;48.222;16.342;2023-06-22T12:46:10;34.50;82.10
17170;DHT22;8700;48.222;16.342;2023-06-22T12:49:31;34.70;82.20
17170;DHT22;8700;48.222;16.342;2023-06-22T12:52:53;34.80;81.80
17170;DHT22;8700;48.222;16.342;2023-06-22T12:56:14;34.40;82.10
17170;DHT22;8700;48.222;16.342;2023-06-22T12:59:37;34.00;82.80
17170;DHT22;8700;48.222;16.342;2023-06-22T13:02:58;34.80;83.20
17170;DHT22;8700;48.222;16.342;2023-06-22T13:06:19;35.10;82.70
17170;DHT22;8700;48.222;16.342;2023-06-22T13:09:41;35.30;82.60
17170;DHT22;8700;48.222;16.342;2023-06-22T13:13:02;35.30;82.80
17170;DHT22;8700;48.222;16.342;2023-06-22T13:16:25;34.70;82.40
17170;DHT22;8700;48.222;16.342;2023-06-22T13:19:46;34.50;82.80
17170;DHT22;8700;48.222;16.342;2023-06-22T13:23:10;35.00;82.90
17170;DHT22;8700;48.222;16.342;2023-06-22T13:26:32;35.00;83.40
17170;DHT22;8700;48.222;16.342;2023-06-22T13:29:54;35.00;83.40
17170;DHT22;8700;48.222;16.342;2023-06-22T13:33:17;34.90;83.80
17170;DHT22;8700;48.222;16.342;2023-06-22T13:36:38;35.10;83.90
17170;DHT22;8700;48.222;16.342;2023-06-22T13:40:00;35.30;81.70
17170;DHT22;8700;48.222;16.342;2023-06-22T13:43:23;34.50;81.70
17170;DHT22;8700;48.222;16.342;2023-06-22T13:46:45;34.50;82.10
17170;DHT22;8700;48.222;16.342;2023-06-22T13:50:08;34.60;82.20
17170;DHT22;8700;48.222;16.342;2023-06-22T13:53:30;34.70;81.50
17170;DHT22;8700;48.222;16.342;2023-06-22T13:56:51;34.30;82.40
17170;DHT22;8700;48.222;16.342;2023-06-22T14:00:13;34.20;82.90
17170;DHT22;8700;48.222;16.342;2023-06-22T14:03:35;34.20;83.20
17170;DHT22;8700;48.222;16.342;2023-06-22T14:06:58;34.20;83.20
17170;DHT22;8700;48.222;16.342;2023-06-22T14:10:19;34.40;82.60
17170;DHT22;8700;48.222;16.342;2023-06-22T14:13:40;34.20;83.70
17170;DHT22;8700;48.222;16.342;2023-06-22T14:17:03;34.40;84.00
17170;DHT22;8700;48.222;16.342;2023-06-22T14:20:25;34.30;84.10
17170;DHT22;8700;48.222;16.342;2023-06-22T14:23:48;34.10;85.10
17170;DHT22;8700;48.222;16.342;2023-06-22T14:27:10;34.40;84.20
17170;DHT22;8700;48.222;16.342;2023-06-22T14:30:31;34.00;85.60
17170;DHT22;8700;48.222;16.342;2023-06-22T14:33:55;34.10;86.00
17170;DHT22;8700;48.222;16.342;2023-06-22T14:37:17;34.00;86.30
17170;DHT22;8700;48.222;16.342;2023-06-22T14:40:39;33.70;87.30
17170;DHT22;8700;48.222;16.342;2023-06-22T14:44:01;33.70;87.50
17170;DHT22;8700;48.222;16.342;2023-06-22T14:47:22;33.90;87.50
17170;DHT22;8700;48.222;16.342;2023-06-22T14:50:47;34.40;86.40
17170;DHT22;8700;48.222;16.342;2023-06-22T14:54:08;34.20;86.90
17170;DHT22;8700;48.222;16.342;2023-06-22T14:57:31;33.70;87.90
17170;DHT22;8700;48.222;16.342;2023-06-22T15:00:53;33.70;87.80
17170;DHT22;8700;48.222;16.342;2023-06-22T15:04:14;33.80;88.00
17170;DHT22;8700;48.222;16.342;2023-06-22T15:07:35;33.90;87.70
17170;DHT22;8700;48.222;16.342;2023-06-22T15:10:59;34.10;87.50
17170;DHT22;8700;48.222;16.342;2023-06-22T15:14:22;34.10;87.40
17170;DHT22;8700;48.222;16.342;2023-06-22T15:17:44;34.20;87.80
17170;DHT22;8700;48.222;16.342;2023-06-22T15:21:05;34.30;88.00
17170;DHT22;8700;48.222;16.342;2023-06-22T15:24:27;34.10;88.70
17170;DHT22;8700;48.222;16.342;2023-06-22T15:27:48;34.00;89.40
17170;DHT22;8700;48.222;16.342;2023-06-22T15:31:14;34.20;89.30
17170;DHT22;8700;48.222;16.342;2023-06-22T15:34:35;34.00;90.10
17170;DHT22;8700;48.222;16.342;2023-06-22T15:37:57;33.90;90.50
17170;DHT22;8700;48.222;16.342;2023-06-22T15:41:19;34.20;90.20
17170;DHT22;8700;48.222;16.342;2023-06-22T15:44:41;34.10;90.40
17170;DHT22;8700;48.222;16.342;2023-06-22T15:48:04;33.70;90.80
17170;DHT22;8700;48.222;16.342;2023-06-22T15:51:25;33.50;91.10
17170;DHT22;8700;48.222;16.342;2023-06-22T15:54:48;33.40;91.60
17170;DHT22;8700;48.222;16.342;2023-06-22T15:58:10;33.20;91.90
17170;DHT22;8700;48.222;16.342;2023-06-22T16:01:33;33.10;92.10
17170;DHT22;8700;48.222;16.342;2023-06-22T16:04:55;33.40;91.80
17170;DHT22;8700;48.222;16.342;2023-06-22T16:08:19;33.50;92.20
17170;DHT22;8700;48.222;16.342;2023-06-22T16:11:40;33.50;92.50
17170;DHT22;8700;48.222;16.342;2023-06-22T16:15:02;33.30;92.90
17170;DHT22;8700;48.222;16.342;2023-06-22T16:18:23;33.00;93.50
17170;DHT22;8700;48.222;16.342;2023-06-22T16:21:46;33.20;93.50
17170;DHT22;8700;48.222;16.342;2023-06-22T16:25:08;33.00;93.90
17170;DHT22;8700;48.222;16.342;2023-06-22T16:28:29;32.80;94.70
17170;DHT22;8700;48.222;16.342;2023-06-22T16:31:50;32.80;94.90
17170;DHT22;8700;48.222;16.342;2023-06-22T16:35:14;32.80;95.20
17170;DHT22;8700;48.222;16.342;2023-06-22T16:38:37;32.80;95.40
17170;DHT22;8700;48.222;16.342;2023-06-22T16:41:58;32.70;95.90
17170;DHT22;8700;48.222;16.342;2023-06-22T16:45:20;32.30;96.70
17170;DHT22;8700;48.222;16.342;2023-06-22T16:48:42;32.30;97.10
17170;DHT22;8700;48.222;16.342;2023-06-22T16:52:10;32.20;97.60
17170;DHT22;8700;48.222;16.342;2023-06-22T16:55:33;32.30;97.80
17170;DHT22;8700;48.222;16.342;2023-06-22T16:58:57;32.40;98.10
17170;DHT22;8700;48.222;16.342;2023-06-22T17:02:19;32.20;98.80
17170;DHT22;8700;48.222;16.342;2023-06-22T17:05:41;32.50;98.60
17170;DHT22;8700;48.222;16.342;2023-06-22T17:09:03;32.60;98.60
17170;DHT22;8700;48.222;16.342;2023-06-22T17:12:27;32.50;99.00
17170;DHT22;8700;48.222;16.342;2023-06-22T17:15:55;32.50;99.10
17170;DHT22;8700;48.222;16.342;2023-06-22T17:19:16;32.30;99.70
17170;DHT22;8700;48.222;16.342;2023-06-22T17:22:38;32.30;99.90
17170;DHT22;8700;48.222;16.342;2023-06-22T17:26:02;32.50;99.90
17170;DHT22;8700;48.222;16.342;2023-06-22T17:29:32;32.40;99.90
17170;DHT22;8700;48.222;16.342;2023-06-22T17:32:54;32.30;99.90
17170;DHT22;8700;48.222;16.342;2023-06-22T17:36:16;32.10;99.90
17170;DHT22;8700;48.222;16.342;2023-06-22T17:39:37;31.90;99.90
17170;DHT22;8700;48.222;16.342;2023-06-22T17:43:05;32.00;99.90
17170;DHT22;8700;48.222;16.342;2023-06-22T17:46:35;32.10;99.90
17170;DHT22;8700;48.222;16.342;2023-06-22T17:50:06;32.10;99.90
17170;DHT22;8700;48.222;16.342;2023-06-22T17:53:28;32.00;99.90
17170;DHT22;8700;48.222;16.342;2023-06-22T17:56:49;31.80;99.90
17170;DHT22;8700;48.222;16.342;2023-06-22T18:00:12;31.70;99.90
17170;DHT22;8700;48.222;16.342;2023-06-22T18:03:34;31.90;99.90
17170;DHT22;8700;48.222;16.342;2023-06-22T18:06:58;31.90;99.90
17170;DHT22;8700;48.222;16.342;2023-06-22T18:10:20;31.90;99.90
17170;DHT22;8700;48.222;16.342;2023-06-22T18:13:43;31.70;99.90
17170;DHT22;8700;48.222;16.342;2023-06-22T18:17:04;31.40;99.90
17170;DHT22;8700;48.222;16.342;2023-06-22T18:20:28;31.40;99.90
17170;DHT22;8700;48.222;16.342;2023-06-22T18:23:50;31.50;99.90
17170;DHT22;8700;48.222;16.342;2023-06-22T18:27:13;31.50;99.90
17170;DHT22;8700;48.222;16.342;2023-06-22T18:30:35;31.60;99.90
17170;DHT22;8700;48.222;16.342;2023-06-22T18:33:58;31.60;99.90
17170;DHT22;8700;48.222;16.342;2023-06-22T18:37:21;31.50;99.90
17170;DHT22;8700;48.222;16.342;2023-06-22T18:40:49;31.60;99.90
17170;DHT22;8700;48.222;16.342;2023-06-22T18:44:12;31.50;99.90
17170;DHT22;8700;48.222;16.342;2023-06-22T18:47:39;31.50;99.90
17170;DHT22;8700;48.222;16.342;2023-06-22T18:51:10;31.40;99.90
17170;DHT22;8700;48.222;16.342;2023-06-22T18:54:36;31.00;99.90
17170;DHT22;8700;48.222;16.342;2023-06-22T18:58:13;31.20;99.90
17170;DHT22;8700;48.222;16.342;2023-06-22T19:01:35;31.30;99.90
17170;DHT22;8700;48.222;16.342;2023-06-22T19:05:06;31.00;99.90
17170;DHT22;8700;48.222;16.342;2023-06-22T19:12:32;30.60;99.90
17170;DHT22;8700;48.222;16.342;2023-06-22T19:15:54;30.60;99.90
17170;DHT22;8700;48.222;16.342;2023-06-22T19:19:18;30.50;99.90
17170;DHT22;8700;48.222;16.342;2023-06-22T19:22:44;30.40;99.90
17170;DHT22;8700;48.222;16.342;2023-06-22T19:26:07;30.40;99.90
17170;DHT22;8700;48.222;16.342;2023-06-22T19:29:31;30.30;99.90
17170;DHT22;8700;48.222;16.342;2023-06-22T19:32:52;30.30;99.90
17170;DHT22;8700;48.222;16.342;2023-06-22T19:36:19;30.20;99.90
17170;DHT22;8700;48.222;16.342;2023-06-22T19:39:41;30.20;99.90
17170;DHT22;8700;48.222;16.342;2023-06-22T19:43:06;30.10;99.90
17170;DHT22;8700;48.222;16.342;2023-06-22T19:46:29;30.10;99.90
17170;DHT22;8700;48.222;16.342;2023-06-22T19:49:58;30.10;99.90
17170;DHT22;8700;48.222;16.342;2023-06-22T19:53:21;30.00;99.90
17170;DHT22;8700;48.222;16.342;2023-06-22T19:56:43;30.10;99.90
17170;DHT22;8700;48.222;16.342;2023-06-22T20:00:06;30.10;99.90
17170;DHT22;8700;48.222;16.342;2023-06-22T20:03:37;30.10;99.90
17170;DHT22;8700;48.222;16.342;2023-06-22T20:07:01;30.20;99.90
17170;DHT22;8700;48.222;16.342;2023-06-22T20:10:23;30.10;99.90
17170;DHT22;8700;48.222;16.342;2023-06-22T20:13:48;30.10;99.90
17170;DHT22;8700;48.222;16.342;2023-06-22T20:17:14;30.10;99.90
17170;DHT22;8700;48.222;16.342;2023-06-22T20:20:38;30.00;99.90
17170;DHT22;8700;48.222;16.342;2023-06-22T20:24:04;29.90;99.90
17170;DHT22;8700;48.222;16.342;2023-06-22T20:27:25;30.00;99.90
17170;DHT22;8700;48.222;16.342;2023-06-22T20:31:01;30.00;99.90
17170;DHT22;8700;48.222;16.342;2023-06-22T20:34:23;29.90;99.90
17170;DHT22;8700;48.222;16.342;2023-06-22T20:37:47;29.90;99.90
17170;DHT22;8700;48.222;16.342;2023-06-22T20:41:08;29.90;99.90
17170;DHT22;8700;48.222;16.342;2023-06-22T20:44:30;29.80;99.90
17170;DHT22;8700;48.222;16.342;2023-06-22T20:47:52;29.60;99.90
17170;DHT22;8700;48.222;16.342;2023-06-22T20:51:15;29.50;99.90
17170;DHT22;8700;48.222;16.342;2023-06-22T20:54:38;29.40;99.90
17170;DHT22;8700;48.222;16.342;2023-06-22T20:58:00;29.40;99.90
17170;DHT22;8700;48.222;16.342;2023-06-22T21:01:21;29.50;99.90
17170;DHT22;8700;48.222;16.342;2023-06-22T21:04:42;29.60;99.90
17170;DHT22;8700;48.222;16.342;2023-06-22T21:08:04;29.70;99.90
17170;DHT22;8700;48.222;16.342;2023-06-22T21:11:27;29.70;99.90
17170;DHT22;8700;48.222;16.342;2023-06-22T21:14:48;29.60;99.90
17170;DHT22;8700;48.222;16.342;2023-06-22T21:18:10;29.40;99.90
17170;DHT22;8700;48.222;16.342;2023-06-22T21:21:31;29.50;99.90